createdAt,value
2023-01-08T00:07:40.815Z,1002.481
2023-01-08T00:11:17.216Z,1002.493
2023-01-08T00:31:38.119Z,1002.516
2023-01-08T00:46:47.671Z,1002.396
2023-01-08T00:56:52.671Z,1002.165
2023-01-08T01:02:01.074Z,1002.162
2023-01-08T01:11:13.144Z,1002.003
2023-01-08T01:19:46.596Z,1002.049
2023-01-08T01:24:56.781Z,1001.967
2023-01-08T01:30:50.540Z,1002.024
2023-01-08T01:39:18.135Z,1001.92
2023-01-08T01:41:13.889Z,1001.934
2023-01-08T02:04:51.247Z,1001.968
2023-01-08T02:07:42.883Z,1002.025
2023-01-08T02:31:29.725Z,1001.96
2023-01-08T02:34:29.709Z,1001.977
2023-01-08T02:39:19.328Z,1001.982
2023-01-08T02:45:48.544Z,1001.893
2023-01-08T02:51:11.793Z,1001.87
2023-01-08T02:54:44.104Z,1002.036
2023-01-08T02:59:46.971Z,1001.959
2023-01-08T03:06:20.247Z,1001.891
2023-01-08T03:11:10.438Z,1001.86
2023-01-08T03:14:24.379Z,1001.928
2023-01-08T03:17:14.660Z,1001.858
2023-01-08T03:58:40.234Z,1001.63
2023-01-08T04:07:54.413Z,1001.517
2023-01-08T04:13:01.015Z,1001.623
2023-01-08T04:18:54.225Z,1001.507
2023-01-08T04:27:03.510Z,1001.589
2023-01-08T04:50:24.803Z,1001.574
2023-01-08T04:57:10.426Z,1001.497
2023-01-08T05:02:58.786Z,1001.501
2023-01-08T05:06:20.624Z,1001.484
2023-01-08T05:11:19.762Z,1001.488
2023-01-08T05:16:14.569Z,1001.43
2023-01-08T05:21:28.544Z,1001.383
2023-01-08T05:26:10.903Z,1001.346
2023-01-08T05:39:22.831Z,1001.285
2023-01-08T05:49:47.359Z,1001.245
2023-01-08T05:54:38.604Z,1001.223
2023-01-08T05:59:16.564Z,1001.271
2023-01-08T06:04:56.584Z,1001.379
2023-01-08T06:13:40.630Z,1001.414
2023-01-08T06:36:33.987Z,1001.278
2023-01-08T06:51:42.727Z,1001.344
2023-01-08T07:26:42.178Z,1001.216
2023-01-08T07:31:09.428Z,1001.259
2023-01-08T07:36:19.129Z,1001.135
2023-01-08T07:42:51.033Z,1001.126
2023-01-08T07:45:13.725Z,1001.039
2023-01-08T08:02:24.706Z,1000.908
2023-01-08T08:06:14.894Z,1000.94
2023-01-08T08:10:45.290Z,1000.905
2023-01-08T08:22:11.889Z,1000.883
2023-01-08T08:32:11.290Z,1000.848
2023-01-08T08:36:35.776Z,1000.761
2023-01-08T09:27:53.374Z,1000.603
2023-01-08T09:30:36.119Z,1000.514
2023-01-08T09:49:44.102Z,1000.445
2023-01-08T09:58:57.126Z,1000.443
2023-01-08T10:12:20.907Z,1000.558
2023-01-08T10:17:59.659Z,1000.445
2023-01-08T10:26:54.662Z,1000.413
2023-01-08T10:37:50.537Z,1000.312
2023-01-08T10:43:07.521Z,1000.14
2023-01-08T10:47:24.326Z,1000.124
2023-01-08T11:03:00.798Z,999.9925
2023-01-08T11:08:38.927Z,999.9394
2023-01-08T11:13:21.577Z,999.8652
2023-01-08T11:13:57.735Z,999.8646
2023-01-08T11:17:58.025Z,999.8084
2023-01-08T11:23:22.266Z,999.7112
2023-01-08T11:27:33.250Z,999.7815
2023-01-08T11:31:15.546Z,999.6041
2023-01-08T11:36:43.756Z,999.6192
2023-01-08T11:42:03.194Z,999.6165
2023-01-08T11:45:09.121Z,999.4618
2023-01-08T11:54:12.221Z,999.369
2023-01-08T11:55:26.396Z,999.3709
2023-01-08T11:59:10.736Z,999.3098
2023-01-08T12:04:16.385Z,999.1373
2023-01-08T12:14:04.692Z,999.0792
2023-01-08T12:19:29.638Z,999.0067
2023-01-08T12:22:46.271Z,999.0308
2023-01-08T12:27:55.405Z,998.9289
2023-01-08T12:32:31.918Z,998.8661
2023-01-08T12:37:36.278Z,998.8297
2023-01-08T12:43:00.816Z,998.916
2023-01-08T12:47:28.987Z,998.8181
2023-01-08T12:52:42.432Z,998.7371
2023-01-08T12:57:36.736Z,998.6933
2023-01-08T13:02:40.453Z,998.6016
2023-01-08T13:07:26.619Z,998.4986
2023-01-08T13:12:38.364Z,998.5149
2023-01-08T13:17:55.026Z,998.528
2023-01-08T13:22:39.552Z,998.2921
2023-01-08T13:27:34.973Z,998.2761
2023-01-08T13:32:44.156Z,998.1914
2023-01-08T13:37:39.998Z,998.1479
2023-01-08T13:42:29.763Z,998.0159
2023-01-08T13:47:49.889Z,998.0604
2023-01-08T13:52:49.011Z,998.0002
2023-01-08T13:57:45.823Z,997.965
2023-01-08T14:03:27.619Z,997.8948
2023-01-08T14:06:06.784Z,997.826
2023-01-08T14:09:08.023Z,997.7506
2023-01-08T14:14:07.639Z,997.7341
2023-01-08T14:19:06.065Z,997.6424
2023-01-08T14:25:19.309Z,997.5831
2023-01-08T14:28:22.358Z,997.6071
2023-01-08T14:33:16.813Z,997.642
2023-01-08T14:38:11.800Z,997.6033
2023-01-08T14:43:27.295Z,997.6538
2023-01-08T14:48:20.160Z,997.6077
2023-01-08T14:53:25.909Z,997.5768
2023-01-08T14:58:19.938Z,997.5442
2023-01-08T15:03:25.212Z,997.4683
2023-01-08T15:08:29.223Z,997.4363
2023-01-08T15:13:11.263Z,997.2455
2023-01-08T15:18:16.463Z,997.2287
2023-01-08T15:23:29.300Z,997.1707
2023-01-08T15:28:26.362Z,997.1954
2023-01-08T15:33:29.737Z,997.114
2023-01-08T15:38:21.759Z,997.1082
2023-01-08T15:43:20.826Z,997.1117
2023-01-08T15:48:44.684Z,996.9548
2023-01-08T15:58:14.583Z,996.8056
2023-01-08T16:03:36.079Z,996.8376
2023-01-08T16:05:16.257Z,996.8505
2023-01-08T16:07:41.571Z,996.8445
2023-01-08T16:12:52.713Z,996.8464
2023-01-08T16:16:26.324Z,996.8516
2023-01-08T16:20:23.551Z,996.8169
2023-01-08T16:25:01.537Z,996.782
2023-01-08T16:35:46.943Z,996.6926
2023-01-08T16:48:31.680Z,996.9106
2023-01-08T16:53:13.475Z,996.8614
2023-01-08T16:58:09.357Z,996.8453
2023-01-08T17:03:10.006Z,996.798
2023-01-08T17:08:18.868Z,996.6566
2023-01-08T17:13:07.324Z,996.5435
2023-01-08T17:18:14.123Z,996.5352
2023-01-08T17:23:19.167Z,996.4097
2023-01-08T17:28:24.660Z,996.3466
2023-01-08T17:33:06.322Z,996.2141
2023-01-08T17:38:22.023Z,996.1661
2023-01-08T17:43:20.411Z,996.0179
2023-01-08T17:50:05.101Z,995.952
2023-01-08T17:52:35.879Z,995.8822
2023-01-08T17:55:41.948Z,995.7547
2023-01-08T18:00:55.600Z,995.6788
2023-01-08T18:05:34.789Z,995.5385
2023-01-08T18:10:43.532Z,995.4327
2023-01-08T18:20:27.371Z,995.2606
2023-01-08T18:25:28.106Z,995.2001
2023-01-08T18:30:46.337Z,995.1183
2023-01-08T18:35:51.169Z,995.0552
2023-01-08T18:40:46.247Z,995.0298
2023-01-08T18:45:40.224Z,994.9688
2023-01-08T18:50:34.343Z,994.8833
2023-01-08T18:55:43.863Z,994.8504
2023-01-08T19:00:38.120Z,994.8133
2023-01-08T19:11:24.496Z,994.7715
2023-01-08T19:17:05.322Z,994.6778
2023-01-08T19:19:17.141Z,994.5355
2023-01-08T19:24:22.152Z,994.572
2023-01-08T19:29:43.912Z,994.4989
2023-01-08T19:40:47.773Z,994.3443
2023-01-08T19:45:41.868Z,994.2672
2023-01-08T19:50:30.373Z,994.2068
2023-01-08T19:55:30.356Z,994.1541
2023-01-08T20:00:34.633Z,994.1394
2023-01-08T20:05:50.073Z,994.0858
2023-01-08T20:10:23.637Z,994.0803
2023-01-08T20:15:49.175Z,993.9628
2023-01-08T20:20:31.946Z,993.9169
2023-01-08T20:25:32.799Z,993.8348
2023-01-08T20:30:27.115Z,993.7455
2023-01-08T20:35:47.118Z,993.6153
2023-01-08T20:40:25.800Z,993.5783
2023-01-08T20:45:37.559Z,993.5966
2023-01-08T20:50:45.309Z,993.5391
2023-01-08T20:55:30.641Z,993.4187
2023-01-08T21:05:55.491Z,993.2819
2023-01-08T21:08:56.887Z,993.2216
2023-01-08T21:17:06.123Z,993.11
2023-01-08T21:21:26.502Z,993.0758
2023-01-08T21:26:29.415Z,993.014
2023-01-08T21:31:45.502Z,992.9894
2023-01-08T21:36:24.307Z,992.9256
2023-01-08T21:45:48.704Z,992.9995
2023-01-08T21:51:20.187Z,992.9592
2023-01-08T21:52:59.698Z,992.975
2023-01-08T22:29:40.321Z,992.7289
2023-01-08T22:49:57.647Z,992.8892
2023-01-08T23:01:47.479Z,993.0159
2023-01-08T23:12:44.552Z,993.1774
2023-01-08T23:18:11.653Z,993.2688
2023-01-08T23:21:36.940Z,993.3
2023-01-08T23:31:22.213Z,993.3457
2023-01-08T23:55:03.627Z,993.4109
2023-01-08T23:58:58.931Z,993.3995
